Time;durP1;ratioP1;P1;durP2;ratioP2;P2;SDS_P1;SDS_P2;PMS_P1;PMS_P2;Temp;Humidity;BMP_temperature;BMP_pressure;BME280_temperature;BME280_humidity;BME280_pressure;Samples;Min_cycle;Max_cycle;Signal;HPM_P1;HPM_P2
2022/05/25 00:00:00;;;;;;;9.13;6.63;;;12.20;42.20;;;;;;5073765;28;20204;-67
2022/05/25 00:02:27;;;;;;;9.10;6.57;;;12.20;41.20;;;;;;5035335;28;1122839;-66
2022/05/25 00:04:54;;;;;;;6.27;5.70;;;12.10;44.90;;;;;;5074949;28;20179;-66
2022/05/25 00:07:21;;;;;;;5.70;5.07;;;12.00;44.70;;;;;;5074643;28;20177;-66
2022/05/25 00:09:47;;;;;;;4.60;3.97;;;12.00;46.60;;;;;;5074909;28;20243;-66
2022/05/25 00:12:13;;;;;;;4.77;3.27;;;12.00;46.20;;;;;;5074511;28;20227;-66
2022/05/25 00:14:39;;;;;;;5.57;2.93;;;11.90;47.30;;;;;;5074763;28;20180;-67
2022/05/25 00:17:05;;;;;;;4.03;3.00;;;12.00;45.90;;;;;;5073385;28;20171;-67
2022/05/25 00:22:14;;;;;;;7.03;6.20;;;12.00;46.60;;;;;;5074600;28;20672;-67
2022/05/25 00:24:40;;;;;;;9.07;5.60;;;11.90;48.40;;;;;;5073308;28;20259;-67
2022/05/25 00:27:06;;;;;;;8.87;5.63;;;11.90;49.40;;;;;;5074626;28;20268;-67
2022/05/25 00:29:32;;;;;;;9.33;4.30;;;11.90;52.00;;;;;;5073606;28;20176;-66
2022/05/25 00:31:59;;;;;;;5.07;3.97;;;11.90;52.20;;;;;;5073101;28;20179;-66
2022/05/25 00:34:25;;;;;;;6.33;4.27;;;11.80;51.90;;;;;;5074356;28;20173;-67
2022/05/25 00:36:51;;;;;;;6.63;3.77;;;11.80;54.10;;;;;;5073943;28;20180;-66
2022/05/25 00:39:16;;;;;;;6.03;3.97;;;11.80;53.90;;;;;;5074171;28;20762;-67
2022/05/25 00:41:42;;;;;;;6.67;3.70;;;11.80;57.90;;;;;;5074414;28;20187;-66
2022/05/25 00:44:08;;;;;;;5.10;3.53;;;11.80;58.90;;;;;;5074252;28;20571;-67
2022/05/25 00:46:37;;;;;;;5.60;3.40;;;11.70;61.20;;;;;;5074259;28;20172;-67
2022/05/25 00:49:12;;;;;;;3.93;3.00;;;11.70;62.60;;;;;;5073936;28;20207;-67
2022/05/25 00:51:42;;;;;;;5.27;3.50;;;11.70;63.70;;;;;;5073670;28;20164;-67
2022/05/25 00:54:19;;;;;;;3.50;3.20;;;11.70;63.00;;;;;;5073995;28;20180;-67
2022/05/25 00:56:47;;;;;;;6.77;3.30;;;11.60;67.80;;;;;;5073942;28;20662;-67
2022/05/25 00:59:27;;;;;;;3.43;3.13;;;11.60;69.50;;;;;;5073708;28;20257;-67
2022/05/25 01:01:54;;;;;;;5.37;3.00;;;11.60;69.40;;;;;;5073507;28;20224;-68
2022/05/25 01:04:19;;;;;;;6.37;3.20;;;11.60;73.10;;;;;;5073362;28;20248;-67
2022/05/25 01:06:50;;;;;;;3.97;3.03;;;11.60;73.40;;;;;;5073763;28;20256;-65
2022/05/25 01:09:48;;;;;;;4.30;2.93;;;11.50;73.30;;;;;;5073700;28;20654;-67
2022/05/25 01:12:23;;;;;;;5.70;2.80;;;11.50;76.70;;;;;;5067866;28;20172;-67
2022/05/25 01:14:49;;;;;;;5.07;3.07;;;11.40;77.50;;;;;;5073514;28;20191;-67
2022/05/25 01:17:42;;;;;;;3.87;3.03;;;11.40;81.30;;;;;;5073520;28;20686;-67
2022/05/25 01:20:16;;;;;;;5.70;3.13;;;11.40;80.60;;;;;;5073272;28;20231;-67
2022/05/25 01:22:56;;;;;;;5.73;3.00;;;11.40;82.50;;;;;;5073478;28;20214;-66
2022/05/25 01:25:48;;;;;;;4.90;2.90;;;11.30;84.50;;;;;;5073464;28;20166;-67
2022/05/25 01:28:54;;;;;;;5.03;2.87;;;11.30;89.00;;;;;;5073437;28;20168;-66
2022/05/25 01:31:36;;;;;;;6.83;2.57;;;11.30;89.80;;;;;;5072021;28;20179;-67
2022/05/25 01:34:17;;;;;;;11.60;3.83;;;11.30;90.60;;;;;;5073058;28;20298;-66
2022/05/25 01:37:13;;;;;;;6.27;3.20;;;11.30;90.50;;;;;;5073252;28;20259;-67
2022/05/25 01:39:43;;;;;;;4.53;3.10;;;11.30;90.60;;;;;;5072899;28;20269;-67
2022/05/25 01:42:25;;;;;;;5.60;3.20;;;11.20;91.50;;;;;;5073511;28;20161;-67
2022/05/25 01:44:56;;;;;;;5.23;3.50;;;11.30;92.50;;;;;;5073227;28;20168;-67
2022/05/25 01:47:26;;;;;;;5.73;3.23;;;11.30;93.00;;;;;;5072833;28;20703;-67
2022/05/25 01:50:01;;;;;;;5.77;3.50;;;11.20;95.10;;;;;;5073143;28;20176;-67
2022/05/25 01:52:34;;;;;;;8.67;3.57;;;11.20;96.20;;;;;;5073151;28;20270;-67
2022/05/25 01:55:05;;;;;;;5.90;3.33;;;11.20;97.60;;;;;;5073300;28;20229;-67
2022/05/25 01:57:35;;;;;;;7.77;3.63;;;11.20;97.30;;;;;;5073176;28;20169;-66
2022/05/25 02:00:01;;;;;;;5.63;3.63;;;11.20;97.70;;;;;;5073218;28;20211;-66
2022/05/25 02:05:15;;;;;;;3.87;3.33;;;11.20;98.40;;;;;;5073306;28;20247;-67
2022/05/25 02:08:21;;;;;;;7.37;3.30;;;11.20;99.10;;;;;;5073217;28;20169;-67
2022/05/25 02:11:08;;;;;;;8.67;3.00;;;11.20;99.90;;;;;;5030975;28;20178;-66
2022/05/25 02:14:00;;;;;;;8.47;3.33;;;11.20;99.90;;;;;;5030792;28;20232;-66
2022/05/25 02:16:59;;;;;;;6.03;3.10;;;11.20;99.90;;;;;;5030698;28;20177;-67
2022/05/25 02:19:30;;;;;;;5.63;3.27;;;11.20;99.90;;;;;;5030685;28;20209;-66
2022/05/25 02:22:24;;;;;;;5.90;3.40;;;11.20;99.90;;;;;;5030918;28;20182;-66
2022/05/25 02:25:02;;;;;;;6.50;3.33;;;11.10;99.90;;;;;;5030966;28;20209;-66
2022/05/25 02:28:00;;;;;;;6.33;3.33;;;11.10;99.90;;;;;;5030886;28;20650;-67
2022/05/25 02:30:31;;;;;;;7.63;3.30;;;11.10;99.90;;;;;;5030432;28;20675;-67
2022/05/25 02:33:08;;;;;;;5.33;3.50;;;11.10;99.90;;;;;;5030508;28;20174;-67
2022/05/25 02:35:35;;;;;;;7.43;3.77;;;11.10;99.90;;;;;;5014278;28;20311;-67
2022/05/25 02:38:04;;;;;;;5.77;3.70;;;11.10;99.90;;;;;;5030380;28;20205;-67
2022/05/25 02:40:30;;;;;;;7.40;4.00;;;11.10;99.90;;;;;;5030642;28;20589;-67
2022/05/25 02:42:55;;;;;;;7.47;3.80;;;11.20;99.90;;;;;;5030557;28;20174;-67
2022/05/25 02:45:21;;;;;;;8.73;3.93;;;11.20;99.90;;;;;;5030391;28;20185;-67
2022/05/25 02:47:47;;;;;;;6.90;3.90;;;11.10;99.90;;;;;;5065184;28;20177;-67
2022/05/25 02:50:13;;;;;;;6.40;4.37;;;11.10;99.90;;;;;;5072468;28;20360;-66
2022/05/25 02:52:38;;;;;;;7.60;4.00;;;11.10;99.90;;;;;;5074010;28;20184;-66
2022/05/25 02:55:05;;;;;;;8.80;4.33;;;11.10;99.90;;;;;;5074937;28;20179;-66
2022/05/25 02:57:31;;;;;;;6.90;4.17;;;11.10;99.90;;;;;;5075981;28;20177;-66
2022/05/25 02:59:56;;;;;;;5.90;4.40;;;11.10;99.90;;;;;;5075818;28;20258;-67
2022/05/25 03:02:22;;;;;;;7.57;4.03;;;11.00;99.90;;;;;;5075869;28;20224;-67
2022/05/25 03:04:48;;;;;;;7.73;4.37;;;11.00;99.90;;;;;;5076123;28;20203;-66
2022/05/25 03:07:13;;;;;;;7.63;4.13;;;10.90;99.90;;;;;;5074828;28;20219;-67
2022/05/25 03:09:39;;;;;;;6.83;3.97;;;11.00;99.90;;;;;;5076132;28;20176;-66
2022/05/25 03:12:07;;;;;;;7.27;4.43;;;11.00;99.90;;;;;;5075863;28;20168;-67
2022/05/25 03:14:33;;;;;;;6.57;4.37;;;11.00;99.90;;;;;;5075102;28;20188;-66
2022/05/25 03:17:08;;;;;;;8.40;4.70;;;11.00;99.90;;;;;;5075812;28;20625;-66
2022/05/25 03:19:35;;;;;;;7.77;4.20;;;11.00;99.90;;;;;;5075381;28;20212;-66
2022/05/25 03:22:00;;;;;;;7.97;4.33;;;11.00;99.90;;;;;;5075397;28;20596;-66
2022/05/25 03:24:26;;;;;;;10.10;4.40;;;11.00;99.90;;;;;;5075755;28;20172;-66
2022/05/25 03:26:52;;;;;;;5.73;4.07;;;11.00;99.90;;;;;;5075566;28;20226;-66
2022/05/25 03:29:19;;;;;;;9.60;4.60;;;11.00;99.90;;;;;;5073968;28;20681;-67
2022/05/25 03:31:44;;;;;;;10.43;4.50;;;11.00;99.90;;;;;;5075094;28;20164;-66
2022/05/25 03:34:10;;;;;;;9.97;4.23;;;10.90;99.90;;;;;;5074951;28;20222;-66
2022/05/25 03:36:35;;;;;;;6.87;4.20;;;10.90;99.90;;;;;;5075404;28;20176;-66
2022/05/25 03:39:01;;;;;;;8.30;4.40;;;10.90;99.90;;;;;;5075048;28;20212;-66
2022/05/25 03:41:27;;;;;;;8.37;4.17;;;11.00;99.90;;;;;;5074925;28;20175;-66
2022/05/25 03:43:52;;;;;;;8.00;5.10;;;11.00;99.90;;;;;;5074859;28;20554;-66
2022/05/25 03:46:18;;;;;;;4.43;4.03;;;11.00;99.90;;;;;;5075215;28;20573;-66
2022/05/25 03:48:44;;;;;;;6.47;4.20;;;11.00;98.60;;;;;;5074752;28;20260;-65
2022/05/25 03:51:10;;;;;;;10.10;4.60;;;11.00;98.30;;;;;;5075045;28;20202;-67
2022/05/25 03:53:36;;;;;;;5.27;4.50;;;11.00;97.50;;;;;;5074698;28;20217;-67
2022/05/25 03:56:04;;;;;;;9.80;4.40;;;11.10;98.90;;;;;;5074441;28;20267;-66
2022/05/25 03:58:29;;;;;;;7.43;3.97;;;11.40;99.90;;;;;;5074163;28;20212;-66
2022/05/25 04:00:55;;;;;;;8.23;4.30;;;11.70;96.00;;;;;;5074263;28;20169;-66
2022/05/25 04:03:22;;;;;;;7.17;3.57;;;12.00;78.70;;;;;;5073643;28;20172;-66
2022/05/25 04:05:48;;;;;;;7.33;3.60;;;12.30;58.70;;;;;;5073231;28;20172;-66
2022/05/25 04:08:14;;;;;;;6.50;3.57;;;12.60;46.00;;;;;;5074591;28;20172;-65
2022/05/25 04:10:39;;;;;;;4.67;3.30;;;13.00;26.60;;;;;;5074503;28;20226;-66
2022/05/25 04:13:06;;;;;;;5.17;3.13;;;13.40;9.70;;;;;;5073721;28;20173;-66
2022/05/25 04:15:32;;;;;;;5.43;3.23;;;13.80;1.00;;;;;;5074693;28;20168;-65
2022/05/25 04:17:58;;;;;;;5.60;3.00;;;14.00;1.00;;;;;;5074092;28;20179;-66
2022/05/25 04:20:26;;;;;;;7.93;3.20;;;14.30;1.00;;;;;;5074444;28;20546;-66
2022/05/25 04:22:52;;;;;;;6.17;3.00;;;14.40;1.00;;;;;;5073759;28;20172;-67
2022/05/25 04:25:20;;;;;;;3.33;2.67;;;14.70;1.00;;;;;;5073722;28;20218;-66
2022/05/25 04:27:48;;;;;;;3.33;2.53;;;15.20;1.00;;;;;;5073583;28;20173;-66
2022/05/25 04:30:18;;;;;;;5.60;2.63;;;15.70;1.00;;;;;;5073993;28;20200;-66
2022/05/25 04:32:44;;;;;;;4.90;2.70;;;16.40;1.00;;;;;;5073535;28;20179;-66
2022/05/25 04:35:11;;;;;;;2.93;2.63;;;16.80;99.90;;;;;;5074001;28;20173;-66
2022/05/25 04:37:48;;;;;;;4.90;2.80;;;17.40;99.90;;;;;;5074057;28;20169;-66
2022/05/25 04:40:16;;;;;;;4.30;2.40;;;17.70;99.00;;;;;;5073652;28;20204;-67
2022/05/25 04:42:43;;;;;;;4.37;2.40;;;17.40;99.90;;;;;;5073189;28;20195;-66
2022/05/25 04:45:10;;;;;;;3.97;2.20;;;17.70;99.90;;;;;;5073824;28;20172;-67
2022/05/25 04:47:37;;;;;;;5.37;2.07;;;18.20;99.90;;;;;;5073968;28;20302;-67
2022/05/25 04:50:07;;;;;;;4.70;2.10;;;19.10;99.90;;;;;;5073372;28;20176;-68
2022/05/25 04:52:36;;;;;;;7.53;2.50;;;19.70;47.00;;;;;;5073364;28;20489;-67
2022/05/25 04:55:02;;;;;;;3.70;2.10;;;20.40;1.00;;;;;;5073363;28;20654;-67
2022/05/25 04:57:28;;;;;;;3.58;1.85;;;20.60;99.90;;;;;;5073209;28;20176;-67
2022/05/25 04:59:58;;;;;;;3.60;1.92;;;20.40;99.90;;;;;;5072701;28;20234;-67
2022/05/25 05:02:24;;;;;;;3.95;1.90;;;20.20;99.90;;;;;;5072623;28;20252;-67
2022/05/25 05:04:49;;;;;;;6.78;2.05;;;20.80;99.90;;;;;;5073443;28;20211;-68
2022/05/25 05:07:16;;;;;;;2.17;1.90;;;21.60;1.00;;;;;;5073354;28;20196;-68
2022/05/25 05:09:44;;;;;;;3.45;2.00;;;22.20;1.00;;;;;;5071531;28;20172;-68
2022/05/25 05:12:10;;;;;;;4.22;2.20;;;22.30;1.00;;;;;;5072513;28;20275;-68
2022/05/25 05:14:37;;;;;;;3.05;2.28;;;22.70;99.90;;;;;;5072579;28;20255;-68
2022/05/25 05:17:05;;;;;;;3.75;1.90;;;23.50;99.90;;;;;;5072609;28;20183;-67
2022/05/25 05:19:31;;;;;;;4.30;1.90;;;23.50;99.90;;;;;;5072954;28;20251;-67
2022/05/25 05:21:57;;;;;;;2.22;1.80;;;22.70;99.90;;;;;;5072183;28;20195;-67
2022/05/25 05:24:27;;;;;;;3.25;1.80;;;22.80;99.90;;;;;;5072734;28;20246;-67
2022/05/25 05:26:54;;;;;;;3.30;1.90;;;22.90;99.90;;;;;;5071724;28;20660;-68
2022/05/25 05:29:20;;;;;;;4.88;1.88;;;23.00;99.90;;;;;;5072519;28;20567;-67
2022/05/25 05:31:45;;;;;;;4.13;1.67;;;23.10;99.90;;;;;;5072439;28;20699;-68
2022/05/25 05:34:11;;;;;;;5.80;1.77;;;23.20;99.90;;;;;;5072183;28;20271;-68
2022/05/25 05:36:44;;;;;;;5.95;2.22;;;22.80;99.90;;;;;;5072417;28;20188;-67
2022/05/25 05:39:13;;;;;;;3.53;1.92;;;23.30;99.90;;;;;;5072022;28;20223;-68
2022/05/25 05:41:46;;;;;;;5.75;2.00;;;23.80;99.90;;;;;;5072245;28;20172;-67
2022/05/25 05:44:15;;;;;;;3.33;1.95;;;24.10;99.90;;;;;;5072991;28;20184;-68
2022/05/25 05:46:42;;;;;;;5.53;2.40;;;24.50;99.90;;;;;;5071619;28;20202;-68
2022/05/25 05:49:12;;;;;;;3.03;1.83;;;23.70;99.90;;;;;;5072499;28;20253;-68
2022/05/25 05:51:38;;;;;;;2.75;1.92;;;24.50;99.90;;;;;;5071677;28;20165;-67
2022/05/25 05:54:04;;;;;;;3.38;2.00;;;25.00;99.90;;;;;;5071666;28;20176;-67
2022/05/25 05:56:32;;;;;;;5.18;2.20;;;25.00;99.90;;;;;;5071535;28;20263;-69
2022/05/25 05:58:59;;;;;;;3.63;1.98;;;25.10;99.90;;;;;;5072494;28;20267;-68
2022/05/25 06:01:24;;;;;;;4.35;2.10;;;25.70;99.90;;;;;;5071717;28;20224;-68
2022/05/25 06:03:50;;;;;;;8.27;2.20;;;26.40;99.90;;;;;;5071338;28;20176;-69
2022/05/25 06:06:16;;;;;;;5.10;2.10;;;26.30;99.90;;;;;;5071699;28;20624;-69
2022/05/25 06:08:46;;;;;;;4.80;1.90;;;27.20;99.90;;;;;;5071190;28;20702;-69
2022/05/25 06:11:13;;;;;;;6.25;2.47;;;27.30;99.90;;;;;;5071091;28;20525;-69
2022/05/25 06:13:40;;;;;;;4.88;2.28;;;26.30;99.90;;;;;;5071886;28;20276;-69
2022/05/25 06:21:34;;;;;;;4.22;2.20;;;27.30;99.90;;;;;;5072455;28;20255;-70
2022/05/25 06:24:00;;;;;;;6.25;2.08;;;27.60;99.90;;;;;;5071764;28;20633;-68
2022/05/25 06:26:31;;;;;;;6.57;2.13;;;26.80;99.90;;;;;;5071950;28;20164;-69
2022/05/25 06:28:58;;;;;;;4.65;2.28;;;27.90;99.90;;;;;;5075872;28;20631;-68
2022/05/25 06:31:24;;;;;;;4.57;2.33;;;28.00;99.90;;;;;;5075693;28;20267;-69
2022/05/25 06:33:50;;;;;;;8.02;2.65;;;28.30;99.90;;;;;;5075398;28;20575;-69
2022/05/25 06:36:18;;;;;;;3.80;2.13;;;28.90;99.90;;;;;;5075689;28;20175;-69
2022/05/25 06:38:45;;;;;;;4.05;2.45;;;28.40;99.90;;;;;;5074360;28;20208;-68
2022/05/25 06:41:11;;;;;;;4.88;2.28;;;27.60;99.90;;;;;;5074672;28;20172;-68
2022/05/25 06:43:37;;;;;;;2.95;1.80;;;28.30;99.90;;;;;;5070384;28;20173;-68
2022/05/25 06:46:04;;;;;;;2.65;1.92;;;27.30;99.90;;;;;;5061840;28;20703;-67
2022/05/25 06:48:29;;;;;;;2.58;2.03;;;27.30;99.90;;;;;;5068550;28;20325;-68
2022/05/25 06:50:55;;;;;;;6.90;2.00;;;27.20;99.90;;;;;;5075320;28;20172;-67
2022/05/25 06:53:21;;;;;;;4.55;2.20;;;27.70;99.90;;;;;;5075042;28;20534;-68
2022/05/25 06:55:47;;;;;;;4.07;1.85;;;28.10;99.90;;;;;;5074461;28;20260;-67
2022/05/25 06:58:13;;;;;;;4.90;2.05;;;27.50;99.90;;;;;;5075097;28;20168;-67
2022/05/25 07:00:38;;;;;;;4.43;1.98;;;27.50;99.90;;;;;;5074474;28;20176;-68
2022/05/25 07:03:04;;;;;;;6.30;2.15;;;27.30;99.90;;;;;;5059822;28;20342;-65
2022/05/25 07:05:30;;;;;;;5.50;2.38;;;27.30;99.90;;;;;;5072631;28;20252;-66
2022/05/25 07:07:56;;;;;;;5.90;2.35;;;27.90;99.90;;;;;;5068919;28;20176;-67
2022/05/25 07:10:21;;;;;;;4.03;1.88;;;28.60;99.90;;;;;;5067587;28;20173;-67
2022/05/25 07:12:47;;;;;;;3.05;1.95;;;28.00;99.90;;;;;;5055284;28;20177;-64
2022/05/25 07:15:13;;;;;;;4.35;1.70;;;28.70;99.90;;;;;;5054112;28;20614;-66
2022/05/25 07:17:39;;;;;;;2.15;1.38;;;29.00;99.90;;;;;;5054192;28;20253;-67
2022/05/25 07:20:06;;;;;;;2.90;1.75;;;28.10;99.90;;;;;;5054446;28;20296;-67
2022/05/25 07:22:32;;;;;;;4.50;1.70;;;28.00;99.90;;;;;;5054330;28;20247;-68
2022/05/25 07:24:58;;;;;;;3.28;1.83;;;28.10;99.90;;;;;;5054353;28;20180;-66
2022/05/25 07:27:24;;;;;;;1.98;1.65;;;28.80;99.90;;;;;;5054908;28;20539;-66
2022/05/25 07:29:50;;;;;;;4.40;2.00;;;28.00;99.90;;;;;;5054163;28;20177;-65
2022/05/25 07:32:16;;;;;;;2.33;1.90;;;27.30;99.90;;;;;;5054649;28;20169;-69
2022/05/25 07:34:47;;;;;;;4.70;1.70;;;27.40;99.90;;;;;;5053901;28;20647;-67
2022/05/25 07:37:16;;;;;;;3.25;1.60;;;26.90;99.90;;;;;;5070727;28;20624;-67
2022/05/25 07:39:50;;;;;;;3.88;1.70;;;26.70;99.90;;;;;;5074009;28;20200;-66
2022/05/25 07:42:18;;;;;;;1.83;1.58;;;27.20;99.90;;;;;;5074403;28;20192;-66
2022/05/25 07:44:55;;;;;;;2.50;1.67;;;27.80;99.90;;;;;;5074653;28;20255;-66
2022/05/25 07:47:21;;;;;;;2.70;1.77;;;28.30;99.90;;;;;;5074175;28;20159;-65
2022/05/25 07:49:47;;;;;;;2.28;1.48;;;28.90;99.90;;;;;;5074305;28;20168;-66
2022/05/25 07:52:13;;;;;;;2.95;1.58;;;29.30;99.90;;;;;;5073919;28;20248;-65
2022/05/25 07:54:42;;;;;;;2.70;1.70;;;28.40;99.90;;;;;;5074145;28;20203;-64
2022/05/25 07:57:08;;;;;;;1.65;1.50;;;28.10;99.90;;;;;;5059099;28;20177;-68
2022/05/25 07:59:34;;;;;;;4.00;1.80;;;26.80;99.90;;;;;;5053510;28;20566;-66
2022/05/25 08:08:06;;;;;;;9.63;2.10;;;23.20;99.90;;;;;;5053527;28;20184;-66
2022/05/25 08:10:33;;;;;;;2.30;1.80;;;24.00;99.90;;;;;;5052731;28;20269;-68
2022/05/25 08:13:00;;;;;;;3.42;1.70;;;24.10;99.90;;;;;;5053689;28;20173;-68
2022/05/25 08:15:27;;;;;;;5.15;1.75;;;25.40;99.90;;;;;;5053426;28;20164;-68
2022/05/25 08:17:53;;;;;;;7.13;2.15;;;26.20;99.90;;;;;;5053651;28;20173;-69
2022/05/25 08:20:19;;;;;;;2.42;1.48;;;27.50;99.90;;;;;;5053306;28;20227;-69
2022/05/25 08:22:45;;;;;;;2.97;1.60;;;27.70;99.90;;;;;;5053769;28;20169;-69
2022/05/25 08:25:17;;;;;;;3.65;1.60;;;28.40;99.90;;;;;;5053211;28;20648;-70
2022/05/25 08:27:43;;;;;;;2.97;1.63;;;28.30;99.90;;;;;;5053837;28;20265;-69
2022/05/25 08:30:17;;;;;;;4.03;1.80;;;28.00;99.90;;;;;;5053699;28;20250;-68
2022/05/25 08:32:43;;;;;;;2.08;1.50;;;27.70;99.90;;;;;;5053574;28;20241;-69
2022/05/25 08:35:09;;;;;;;3.22;1.52;;;27.20;99.90;;;;;;5051816;28;20857;-69
2022/05/25 08:37:36;;;;;;;2.63;1.50;;;26.70;99.90;;;;;;5053804;28;20575;-69
2022/05/25 08:40:02;;;;;;;3.45;1.55;;;27.20;99.90;;;;;;5053406;28;20281;-69
2022/05/25 08:42:30;;;;;;;3.30;1.50;;;26.80;99.90;;;;;;5053375;28;20185;-70
2022/05/25 08:44:57;;;;;;;7.38;1.42;;;27.50;99.90;;;;;;5053666;28;20185;-70
2022/05/25 08:47:24;;;;;;;2.50;1.70;;;27.30;99.90;;;;;;5053102;28;20280;-69
2022/05/25 08:49:51;;;;;;;3.33;1.60;;;27.80;99.90;;;;;;5051994;28;20177;-69
2022/05/25 08:52:37;;;;;;;4.55;1.30;;;27.60;99.90;;;;;;5053362;28;20177;-69
2022/05/25 08:55:07;;;;;;;2.15;1.10;;;27.20;99.90;;;;;;5053165;28;20185;-69
2022/05/25 08:57:56;;;;;;;1.33;1.20;;;27.70;99.90;;;;;;5053208;28;20178;-69
2022/05/25 09:00:23;;;;;;;3.75;1.23;;;27.50;99.90;;;;;;5052897;28;20205;-71
2022/05/25 09:02:58;;;;;;;2.00;1.10;;;28.50;99.90;;;;;;5052583;28;20304;-70
2022/05/25 09:05:30;;;;;;;3.03;1.10;;;28.90;99.90;;;;;;5053340;28;20238;-69
2022/05/25 09:08:21;;;;;;;2.67;1.30;;;27.90;99.90;;;;;;5052568;28;20175;-69
2022/05/25 09:10:54;;;;;;;3.60;1.23;;;28.60;99.90;;;;;;5053040;28;20158;-70
2022/05/25 09:13:29;;;;;;;2.90;1.23;;;28.70;99.90;;;;;;5053172;28;20708;-69
2022/05/25 09:18:48;;;;;;;2.08;1.10;;;30.40;97.00;;;;;;5051958;28;20211;-69
2022/05/25 09:21:17;;;;;;;4.75;0.85;;;29.20;91.10;;;;;;5052972;28;20184;-71
2022/05/25 09:23:43;;;;;;;2.80;1.30;;;27.30;96.00;;;;;;5051533;28;20181;-68
2022/05/25 09:26:09;;;;;;;1.33;1.13;;;26.80;99.90;;;;;;5052860;28;20168;-70
2022/05/25 09:28:38;;;;;;;2.08;0.95;;;27.10;99.90;;;;;;5052405;28;20173;-69
2022/05/25 09:31:06;;;;;;;3.03;1.00;;;27.10;98.80;;;;;;5052378;28;20235;-70
2022/05/25 09:33:32;;;;;;;2.72;1.00;;;27.00;99.90;;;;;;5052267;28;20205;-69
2022/05/25 09:36:02;;;;;;;2.63;0.90;;;26.40;99.90;;;;;;5052719;28;20173;-69
2022/05/25 09:38:42;;;;;;;1.70;0.90;;;27.30;99.90;;;;;;5052923;28;20235;-68
2022/05/25 09:41:12;;;;;;;2.65;1.00;;;27.10;99.90;;;;;;5052083;28;20172;-69
2022/05/25 09:43:39;;;;;;;3.22;1.10;;;26.60;99.90;;;;;;5053027;28;20620;-69
2022/05/25 09:46:09;;;;;;;2.30;1.10;;;26.50;99.90;;;;;;5052146;28;20620;-69
2022/05/25 09:48:47;;;;;;;2.47;0.90;;;27.00;99.90;;;;;;5052152;28;20614;-69
2022/05/25 09:51:36;;;;;;;1.13;0.88;;;27.40;99.90;;;;;;5052230;28;20227;-69
2022/05/25 09:54:06;;;;;;;1.23;1.00;;;27.40;98.20;;;;;;5052185;28;20524;-69
2022/05/25 09:56:31;;;;;;;2.88;0.80;;;28.10;96.60;;;;;;5053179;28;20165;-69
2022/05/25 09:59:06;;;;;;;2.53;1.00;;;28.50;92.30;;;;;;5052330;28;20258;-68
2022/05/25 10:01:40;;;;;;;1.70;1.17;;;28.60;90.30;;;;;;5053113;28;20228;-70
2022/05/25 10:04:08;;;;;;;1.30;1.00;;;28.30;85.60;;;;;;5055415;28;20192;-68
2022/05/25 10:06:48;;;;;;;4.55;1.23;;;27.20;92.60;;;;;;5056431;28;20180;-68
2022/05/25 10:09:28;;;;;;;1.55;0.80;;;27.20;91.50;;;;;;5056447;28;20649;-69
2022/05/25 10:11:55;;;;;;;2.47;1.17;;;26.90;91.20;;;;;;5056273;28;20234;-70
2022/05/25 10:14:37;;;;;;;2.03;0.73;;;27.50;91.20;;;;;;5056222;28;20170;-70
2022/05/25 10:17:12;;;;;;;1.50;1.00;;;27.40;89.70;;;;;;5055726;28;20165;-69
2022/05/25 10:19:55;;;;;;;2.28;1.02;;;27.50;89.10;;;;;;5054033;28;20212;-69
2022/05/25 10:22:44;;;;;;;3.40;0.93;;;27.20;85.30;;;;;;5056118;28;20651;-70
2022/05/25 10:25:22;;;;;;;5.50;1.05;;;27.40;87.80;;;;;;5055499;28;20572;-69
2022/05/25 10:27:48;;;;;;;2.90;0.85;;;27.50;90.20;;;;;;5055949;28;20181;-70
2022/05/25 10:39:32;;;;;;;2.15;0.90;;;26.80;89.60;;;;;;5055995;28;20694;-70
2022/05/25 10:42:12;;;;;;;1.13;0.63;;;25.70;89.10;;;;;;5055436;28;20226;-68
2022/05/25 10:44:56;;;;;;;3.67;1.00;;;24.70;96.80;;;;;;5055683;28;20181;-69
2022/05/25 10:47:40;;;;;;;1.30;0.80;;;25.50;99.90;;;;;;5055344;28;20173;-69
2022/05/25 10:50:18;;;;;;;3.88;1.20;;;26.10;98.20;;;;;;5053747;28;20218;-69
2022/05/25 10:52:48;;;;;;;3.25;1.40;;;26.00;99.60;;;;;;5055067;28;20184;-69
2022/05/25 10:55:14;;;;;;;2.25;1.02;;;26.40;96.30;;;;;;5055519;28;20675;-70
2022/05/25 10:58:13;;;;;;;2.15;1.10;;;26.00;95.80;;;;;;5054474;28;20170;-70
2022/05/25 11:01:10;;;;;;;3.17;0.95;;;26.40;97.70;;;;;;5054769;28;20624;-68
2022/05/25 11:04:04;;;;;;;3.97;1.00;;;25.40;93.90;;;;;;5040115;28;20304;-68
2022/05/25 11:06:45;;;;;;;2.53;0.90;;;24.80;97.10;;;;;;5055078;28;20165;-68
2022/05/25 11:09:31;;;;;;;3.30;1.00;;;24.40;99.10;;;;;;5055347;28;20179;-69
2022/05/25 11:12:01;;;;;;;1.33;0.70;;;24.20;99.90;;;;;;5054130;28;20219;-69
2022/05/25 11:14:51;;;;;;;1.80;0.73;;;24.50;99.90;;;;;;5053966;28;20181;-69
2022/05/25 11:17:26;;;;;;;2.70;1.38;;;24.60;99.90;;;;;;5055243;28;20257;-68
2022/05/25 11:19:57;;;;;;;3.60;0.93;;;23.70;99.90;;;;;;5055088;28;20238;-69
2022/05/25 11:22:28;;;;;;;1.48;0.80;;;23.20;99.90;;;;;;5053135;28;20498;-67
2022/05/25 11:25:42;;;;;;;2.03;0.90;;;23.00;99.90;;;;;;5054656;28;20181;-69
2022/05/25 11:28:11;;;;;;;1.83;1.00;;;22.80;99.90;;;;;;5016650;28;20225;-69
2022/05/25 11:30:51;;;;;;;5.70;1.05;;;22.50;99.90;;;;;;5053828;28;20161;-69
2022/05/25 11:33:32;;;;;;;2.42;0.90;;;21.80;99.90;;;;;;5054647;28;20173;-69
2022/05/25 11:36:12;;;;;;;4.45;1.10;;;21.80;99.90;;;;;;5054944;28;20161;-68
2022/05/25 11:39:12;;;;;;;5.55;1.20;;;22.00;99.90;;;;;;5054183;28;20296;-68
2022/05/25 11:42:03;;;;;;;0.90;0.90;;;21.50;99.90;;;;;;5054708;28;20248;-69
2022/05/25 11:44:52;;;;;;;4.40;1.25;;;21.70;99.90;;;;;;5052190;28;20174;-68
2022/05/25 11:47:36;;;;;;;2.28;1.02;;;21.80;99.90;;;;;;5052090;28;20169;-68
2022/05/25 11:50:23;;;;;;;1.98;0.90;;;21.80;99.90;;;;;;5054206;28;20272;-68
2022/05/25 11:53:01;;;;;;;2.83;1.00;;;21.70;99.90;;;;;;5053803;28;20268;-68
2022/05/25 11:55:35;;;;;;;3.20;1.05;;;21.50;99.90;;;;;;5053632;28;20173;-68
2022/05/25 11:58:16;;;;;;;5.38;1.00;;;21.10;99.90;;;;;;5053817;28;20336;-68
2022/05/25 12:00:50;;;;;;;2.75;0.95;;;21.00;99.90;;;;;;5054250;28;20212;-69
2022/05/25 12:03:45;;;;;;;4.20;1.20;;;21.10;99.90;;;;;;5053953;28;20288;-69
2022/05/25 12:06:24;;;;;;;3.00;1.15;;;21.40;99.90;;;;;;5054264;28;20173;-68
2022/05/25 12:09:14;;;;;;;3.67;1.10;;;21.80;99.90;;;;;;5053679;28;20167;-69
2022/05/25 12:11:45;;;;;;;1.88;1.33;;;22.00;99.90;;;;;;5051583;28;20621;-68
2022/05/25 12:14:54;;;;;;;5.80;1.40;;;22.40;99.90;;;;;;5053303;28;20176;-69
2022/05/25 12:17:44;;;;;;;2.38;1.02;;;22.60;99.90;;;;;;5053565;28;20513;-68
2022/05/25 12:20:12;;;;;;;1.88;0.85;;;22.30;99.90;;;;;;5053228;28;20208;-67
2022/05/25 12:22:48;;;;;;;2.28;1.00;;;22.10;99.90;;;;;;5053340;28;20204;-67
2022/05/25 12:25:15;;;;;;;2.17;1.20;;;21.80;99.90;;;;;;5052722;28;20177;-68
2022/05/25 12:27:47;;;;;;;1.77;0.90;;;21.70;99.90;;;;;;5053050;28;20237;-68
2022/05/25 12:30:38;;;;;;;4.38;1.38;;;21.80;99.90;;;;;;5054153;28;20656;-68
2022/05/25 12:33:07;;;;;;;3.67;1.52;;;21.60;99.90;;;;;;5052894;28;20189;-67
2022/05/25 12:35:35;;;;;;;3.00;1.10;;;21.30;99.90;;;;;;5053628;28;20230;-68
2022/05/25 12:38:05;;;;;;;4.50;1.17;;;21.20;99.90;;;;;;5053428;28;20180;-68
2022/05/25 12:40:34;;;;;;;2.80;1.38;;;21.30;99.90;;;;;;5052425;28;20220;-67
2022/05/25 12:43:00;;;;;;;4.07;1.20;;;21.20;99.90;;;;;;5051988;28;20173;-68
2022/05/25 12:48:30;;;;;;;2.33;1.13;;;21.00;99.90;;;;;;5052918;28;20578;-68
2022/05/25 12:51:07;;;;;;;4.70;1.23;;;20.90;99.90;;;;;;5052932;28;20586;-68
2022/05/25 12:53:38;;;;;;;5.68;1.38;;;21.10;99.90;;;;;;5053561;28;20201;-67
2022/05/25 12:56:07;;;;;;;1.80;1.08;;;20.90;99.90;;;;;;5054955;28;20188;-72
2022/05/25 12:58:37;;;;;;;3.03;1.30;;;20.90;99.90;;;;;;5067301;28;20227;-70
2022/05/25 13:01:05;;;;;;;4.03;1.33;;;20.80;99.90;;;;;;5067711;28;20201;-70
2022/05/25 13:03:49;;;;;;;1.95;1.20;;;20.50;99.90;;;;;;5066390;28;20240;-70
2022/05/25 13:06:29;;;;;;;3.33;1.20;;;20.60;99.90;;;;;;5064491;28;20187;-71
2022/05/25 13:08:55;;;;;;;5.85;1.40;;;20.70;99.90;;;;;;5071893;28;20169;-70
2022/05/25 13:11:43;;;;;;;3.22;1.23;;;20.50;99.90;;;;;;5071882;28;20169;-71
2022/05/25 13:14:16;;;;;;;4.35;1.27;;;20.90;99.90;;;;;;5072652;28;20165;-69
2022/05/25 13:16:41;;;;;;;4.80;1.40;;;21.30;99.90;;;;;;5072985;28;20195;-68
2022/05/25 13:19:13;;;;;;;5.07;1.25;;;21.60;99.90;;;;;;5071008;28;20276;-72
2022/05/25 13:21:41;;;;;;;5.30;1.38;;;21.50;99.90;;;;;;5072565;28;20171;-69
2022/05/25 13:24:13;;;;;;;6.55;1.40;;;21.50;99.90;;;;;;5072154;28;20164;-71
2022/05/25 13:26:56;;;;;;;2.45;1.30;;;21.70;99.90;;;;;;5072361;28;20196;-71
2022/05/25 13:30:10;;;;;;;2.58;1.25;;;22.10;99.90;;;;;;5071808;28;20172;-69
2022/05/25 13:32:56;;;;;;;4.40;1.42;;;21.90;99.90;;;;;;5071184;28;20619;-70
2022/05/25 13:35:21;;;;;;;2.10;1.23;;;21.90;99.90;;;;;;5071327;28;20644;-69
2022/05/25 13:37:55;;;;;;;3.70;1.30;;;21.90;99.90;;;;;;5072075;28;20188;-70
2022/05/25 13:40:24;;;;;;;4.55;1.30;;;21.90;99.90;;;;;;5070784;28;20219;-69
2022/05/25 13:42:51;;;;;;;4.18;1.20;;;22.00;99.90;;;;;;5071547;28;20614;-69